createdAt,value
2019-04-16T00:00:37.453Z,60.90
2019-04-16T00:03:05.936Z,60.90
2019-04-16T00:05:41.801Z,61.60
2019-04-16T00:08:27.289Z,61.60
2019-04-16T00:10:46.108Z,61.90
2019-04-16T00:13:22.087Z,62.10
2019-04-16T00:15:50.504Z,62.50
2019-04-16T00:18:19.543Z,63.20
2019-04-16T00:20:49.976Z,64.50
2019-04-16T00:23:38.286Z,65.20
2019-04-16T00:26:08.429Z,65.40
2019-04-16T00:28:36.866Z,66.50
2019-04-16T00:31:05.851Z,66.20
2019-04-16T00:33:34.525Z,66.00
2019-04-16T00:36:02.958Z,65.80
2019-04-16T00:38:40.631Z,65.90
2019-04-16T00:41:02.276Z,66.50
2019-04-16T00:43:30.859Z,66.30
2019-04-16T00:45:59.275Z,66.50
2019-04-16T00:48:27.766Z,66.60
2019-04-16T00:50:56.182Z,66.50
2019-04-16T00:53:24.597Z,66.30
2019-04-16T00:55:53.009Z,66.40
2019-04-16T00:58:21.417Z,66.70
2019-04-16T01:00:49.832Z,66.80
2019-04-16T01:03:18.374Z,67.00
2019-04-16T01:05:46.784Z,67.70
2019-04-16T01:08:15.202Z,66.90
2019-04-16T01:10:43.618Z,66.80
2019-04-16T01:13:12.037Z,66.90
2019-04-16T01:15:40.500Z,67.00
2019-04-16T01:18:09.067Z,67.10
2019-04-16T01:20:37.578Z,67.10
2019-04-16T01:23:06.019Z,66.60
2019-04-16T01:25:34.573Z,67.00
2019-04-16T01:28:04.625Z,66.90
2019-04-16T01:30:36.568Z,67.40
2019-04-16T01:33:06.477Z,66.90
2019-04-16T01:35:39.517Z,67.00
2019-04-16T01:38:18.566Z,67.20
2019-04-16T01:40:50.117Z,67.10
2019-04-16T01:43:18.753Z,67.20
2019-04-16T01:45:47.182Z,67.40
2019-04-16T01:48:15.618Z,67.00
2019-04-16T01:50:44.459Z,67.20
2019-04-16T01:53:12.961Z,67.50
2019-04-16T01:55:42.577Z,67.20
2019-04-16T01:58:11.197Z,68.40
2019-04-16T02:00:40.036Z,68.10
2019-04-16T02:03:08.602Z,69.50
2019-04-16T02:05:37.012Z,69.20
2019-04-16T02:08:05.553Z,69.70
2019-04-16T02:10:35.485Z,70.10
2019-04-16T02:13:04.730Z,70.40
2019-04-16T02:15:33.165Z,70.70
2019-04-16T02:18:01.642Z,70.70
2019-04-16T02:20:30.317Z,70.90
2019-04-16T02:22:58.734Z,71.30
2019-04-16T02:25:27.146Z,71.10
2019-04-16T02:27:57.005Z,70.90
2019-04-16T02:30:25.816Z,70.60
2019-04-16T02:32:54.436Z,70.70
2019-04-16T02:35:22.925Z,71.20
2019-04-16T02:37:51.403Z,71.40
2019-04-16T02:40:19.810Z,71.40
2019-04-16T02:42:48.228Z,73.70
2019-04-16T02:45:23.050Z,74.50
2019-04-16T02:47:46.929Z,74.90
2019-04-16T02:50:17.042Z,74.50
2019-04-16T02:52:51.054Z,74.50
2019-04-16T02:55:33.511Z,75.10
2019-04-16T02:58:06.547Z,75.20
2019-04-16T03:00:55.109Z,75.90
2019-04-16T03:03:28.094Z,76.00
2019-04-16T03:06:00.666Z,76.40
2019-04-16T03:08:27.580Z,76.80
2019-04-16T03:10:55.985Z,77.10
2019-04-16T03:13:24.493Z,77.90
2019-04-16T03:15:54.594Z,77.20
2019-04-16T03:18:33.932Z,77.70
2019-04-16T03:21:02.501Z,78.30
2019-04-16T03:23:31.137Z,77.70
2019-04-16T03:25:59.592Z,78.10
2019-04-16T03:28:28.094Z,78.10
2019-04-16T03:30:56.768Z,78.60
2019-04-16T03:33:25.178Z,79.00
2019-04-16T03:35:57.586Z,79.80
2019-04-16T03:38:23.732Z,78.90
2019-04-16T03:40:55.878Z,79.00
2019-04-16T03:43:22.368Z,79.30
2019-04-16T03:45:50.840Z,79.30
2019-04-16T03:48:20.625Z,79.50
2019-04-16T03:50:49.428Z,79.30
2019-04-16T03:53:18.389Z,79.60
2019-04-16T03:55:46.940Z,79.70
2019-04-16T03:58:15.359Z,80.30
2019-04-16T04:00:44.928Z,80.40
2019-04-16T04:03:13.468Z,80.20
2019-04-16T04:05:43.533Z,80.30
2019-04-16T04:08:16.327Z,80.70
2019-04-16T04:10:42.168Z,80.70
2019-04-16T04:13:10.659Z,80.00
2019-04-16T04:15:39.061Z,80.20
2019-04-16T04:18:07.841Z,80.60
2019-04-16T04:20:37.628Z,80.80
2019-04-16T04:23:06.461Z,80.60
2019-04-16T04:25:36.357Z,80.60
2019-04-16T04:28:05.184Z,80.90
2019-04-16T04:30:33.580Z,81.40
2019-04-16T04:33:07.706Z,81.40
2019-04-16T04:35:32.522Z,81.40
2019-04-16T04:38:03.860Z,82.30
2019-04-16T04:40:43.794Z,82.20
2019-04-16T04:43:01.728Z,82.20
2019-04-16T04:45:30.229Z,82.00
2019-04-16T04:47:58.640Z,81.40
2019-04-16T04:50:27.056Z,81.80
2019-04-16T04:52:55.482Z,81.40
2019-04-16T04:55:26.897Z,81.90
2019-04-16T04:57:54.042Z,81.90
2019-04-16T05:00:22.461Z,82.10
2019-04-16T05:02:50.872Z,82.10
2019-04-16T05:05:24.444Z,81.50
2019-04-16T05:07:51.120Z,81.20
2019-04-16T05:10:19.610Z,81.80
2019-04-16T05:12:50.501Z,81.80
2019-04-16T05:15:18.196Z,82.10
2019-04-16T05:17:46.629Z,81.90
2019-04-16T05:20:16.274Z,82.50
2019-04-16T05:22:44.960Z,82.10
2019-04-16T05:25:13.381Z,81.50
2019-04-16T05:27:41.792Z,81.10
2019-04-16T05:30:10.545Z,80.60
2019-04-16T05:32:38.994Z,79.90
2019-04-16T05:35:10.207Z,79.30
2019-04-16T05:37:37.534Z,78.80
2019-04-16T05:40:07.286Z,78.40
2019-04-16T05:42:35.695Z,76.90
2019-04-16T05:45:07.122Z,75.70
2019-04-16T05:47:35.556Z,75.10
2019-04-16T05:50:04.950Z,74.80
2019-04-16T05:52:35.905Z,73.70
2019-04-16T05:55:16.909Z,73.10
2019-04-16T05:57:43.610Z,72.50
2019-04-16T06:00:17.097Z,72.20
2019-04-16T06:02:49.730Z,72.00
2019-04-16T06:05:15.638Z,71.10
2019-04-16T06:07:44.072Z,71.00
2019-04-16T06:10:16.607Z,70.90
2019-04-16T06:12:53.781Z,70.60
2019-04-16T06:15:26.825Z,70.20
2019-04-16T06:18:11.983Z,69.60
2019-04-16T06:20:53.074Z,70.20
2019-04-16T06:23:25.708Z,70.30
2019-04-16T06:26:04.926Z,71.20
2019-04-16T06:28:34.986Z,70.40
2019-04-16T06:31:10.174Z,70.80
2019-04-16T06:33:39.888Z,70.30
2019-04-16T06:36:26.248Z,70.00
2019-04-16T06:39:02.271Z,69.70
2019-04-16T06:41:41.614Z,69.40
2019-04-16T06:44:04.325Z,70.20
2019-04-16T06:46:39.949Z,66.50
2019-04-16T06:49:17.640Z,67.70
2019-04-16T06:52:03.505Z,67.10
2019-04-16T06:54:45.517Z,67.90
2019-04-16T06:57:31.322Z,67.00
2019-04-16T07:00:17.815Z,67.30
2019-04-16T07:03:02.209Z,67.10
2019-04-16T07:05:31.936Z,66.10
2019-04-16T07:08:03.329Z,66.20
2019-04-16T07:10:45.619Z,66.20
2019-04-16T07:13:14.037Z,66.30
2019-04-16T07:15:42.701Z,66.20
2019-04-16T07:18:11.135Z,65.90
2019-04-16T07:20:42.313Z,65.70
2019-04-16T07:23:09.688Z,66.10
2019-04-16T07:25:41.728Z,64.60
2019-04-16T07:28:12.915Z,64.70
2019-04-16T07:30:45.877Z,64.30
2019-04-16T07:33:19.205Z,64.00
2019-04-16T07:36:01.300Z,63.60
2019-04-16T07:38:31.349Z,63.60
2019-04-16T07:41:19.512Z,63.70
2019-04-16T07:44:10.726Z,62.50
2019-04-16T07:46:44.144Z,62.70
2019-04-16T07:49:33.824Z,63.00
2019-04-16T07:52:19.419Z,62.50
2019-04-16T07:54:55.082Z,62.70
2019-04-16T07:57:23.527Z,61.80
2019-04-16T07:59:51.981Z,60.50
2019-04-16T08:02:21.459Z,59.90
2019-04-16T08:04:51.206Z,60.50
2019-04-16T08:07:20.645Z,59.90
2019-04-16T08:09:49.720Z,59.50
2019-04-16T08:12:29.785Z,59.50
2019-04-16T08:14:48.349Z,58.80
2019-04-16T08:17:16.771Z,58.80
2019-04-16T08:19:49.183Z,58.50
2019-04-16T08:22:16.508Z,58.10
2019-04-16T08:24:46.734Z,56.70
2019-04-16T08:27:19.093Z,56.40
2019-04-16T08:29:45.289Z,56.80
2019-04-16T08:32:16.069Z,56.50
2019-04-16T08:34:43.910Z,55.70
2019-04-16T08:37:12.388Z,55.30
2019-04-16T08:39:40.833Z,55.90
2019-04-16T08:42:09.259Z,56.40
2019-04-16T08:44:37.673Z,55.90
2019-04-16T08:47:11.521Z,54.40
2019-04-16T08:49:36.240Z,54.10
2019-04-16T08:52:09.914Z,54.10
2019-04-16T08:54:34.922Z,53.40
2019-04-16T08:57:03.348Z,53.70
2019-04-16T08:59:31.765Z,53.60
2019-04-16T09:02:00.209Z,52.60
2019-04-16T09:04:34.259Z,52.40
2019-04-16T09:07:10.572Z,52.50
2019-04-16T09:09:34.118Z,52.20
2019-04-16T09:12:07.977Z,51.90
2019-04-16T09:14:35.957Z,50.40
2019-04-16T09:17:09.519Z,49.90
2019-04-16T09:19:37.609Z,50.20
2019-04-16T09:22:06.232Z,48.80
2019-04-16T09:24:40.200Z,46.00
2019-04-16T09:27:13.413Z,47.00
2019-04-16T09:29:52.004Z,47.40
2019-04-16T09:32:40.058Z,45.90
2019-04-16T09:35:20.418Z,46.30
2019-04-16T09:37:56.532Z,45.40
2019-04-16T09:40:26.619Z,45.50
2019-04-16T09:42:55.804Z,45.50
2019-04-16T09:45:25.190Z,45.20
2019-04-16T09:47:54.004Z,45.40
2019-04-16T09:50:22.604Z,44.60
2019-04-16T09:52:52.385Z,44.60
2019-04-16T09:55:21.262Z,44.00
2019-04-16T09:57:49.668Z,45.00
2019-04-16T10:00:21.256Z,45.90
2019-04-16T10:02:49.840Z,42.10
2019-04-16T10:05:18.262Z,43.20
2019-04-16T10:07:46.749Z,43.40
2019-04-16T10:10:15.308Z,43.50
2019-04-16T10:12:43.819Z,42.80
2019-04-16T10:15:12.556Z,42.90
2019-04-16T10:17:41.097Z,42.30
2019-04-16T10:20:09.751Z,42.50
2019-04-16T10:22:38.238Z,42.40
2019-04-16T10:25:11.779Z,42.70
2019-04-16T10:27:41.995Z,43.30
2019-04-16T10:30:18.664Z,43.30
2019-04-16T10:32:47.349Z,42.30
2019-04-16T10:35:15.890Z,41.50
2019-04-16T10:37:44.320Z,41.60
2019-04-16T10:40:15.985Z,40.30
2019-04-16T10:43:02.632Z,38.80
2019-04-16T10:45:49.157Z,39.60
2019-04-16T10:48:22.384Z,39.10
2019-04-16T10:51:01.330Z,39.80
2019-04-16T10:53:47.681Z,38.70
2019-04-16T10:56:20.770Z,38.10
2019-04-16T10:58:55.182Z,38.80
2019-04-16T11:01:35.215Z,40.50
2019-04-16T11:04:14.279Z,38.70
2019-04-16T11:06:44.562Z,38.50
2019-04-16T11:09:12.993Z,37.30
2019-04-16T11:11:41.594Z,38.30
2019-04-16T11:14:10.460Z,38.00
2019-04-16T11:16:40.598Z,38.40
2019-04-16T11:19:09.374Z,37.80
2019-04-16T11:21:37.869Z,38.30
2019-04-16T11:24:06.355Z,37.10
2019-04-16T11:26:34.765Z,36.50
2019-04-16T11:29:03.213Z,38.50
2019-04-16T11:31:31.886Z,39.40
2019-04-16T11:34:00.403Z,38.30
2019-04-16T11:36:30.949Z,38.10
2019-04-16T11:38:59.030Z,37.50
2019-04-16T11:41:27.491Z,37.20
2019-04-16T11:43:55.957Z,37.40
2019-04-16T11:46:24.485Z,37.60
2019-04-16T11:48:52.971Z,36.30
2019-04-16T11:51:24.533Z,37.00
2019-04-16T11:53:53.148Z,36.60
2019-04-16T11:56:38.604Z,36.10
2019-04-16T11:58:53.015Z,36.80
2019-04-16T12:01:32.138Z,36.10
2019-04-16T12:04:05.062Z,36.90
2019-04-16T12:06:48.717Z,36.20
2019-04-16T12:09:24.641Z,36.80
2019-04-16T12:11:54.717Z,35.50
2019-04-16T12:14:32.455Z,35.00
2019-04-16T12:17:02.737Z,36.40
2019-04-16T12:19:32.841Z,35.70
2019-04-16T12:22:08.709Z,35.90
2019-04-16T12:24:53.513Z,35.20
2019-04-16T12:27:36.987Z,34.10
2019-04-16T12:30:25.572Z,35.40
2019-04-16T12:32:56.359Z,35.40
2019-04-16T12:35:45.338Z,33.90
2019-04-16T12:38:18.654Z,34.60
2019-04-16T12:41:03.565Z,34.10
2019-04-16T12:43:36.641Z,32.00
2019-04-16T12:46:13.307Z,32.10
2019-04-16T12:48:55.289Z,32.80
2019-04-16T12:51:43.988Z,32.50
2019-04-16T12:54:14.268Z,32.40
2019-04-16T12:57:00.286Z,32.40
2019-04-16T12:59:33.153Z,31.70
2019-04-16T13:02:15.229Z,32.40
2019-04-16T13:04:45.664Z,32.30
2019-04-16T13:07:17.097Z,32.90
2019-04-16T13:09:56.205Z,31.80
2019-04-16T13:12:44.504Z,31.50
2019-04-16T13:15:14.921Z,31.00
2019-04-16T13:18:01.692Z,31.50
2019-04-16T13:20:37.818Z,31.00
2019-04-16T13:23:19.477Z,30.10
2019-04-16T13:26:05.495Z,30.90
2019-04-16T13:28:33.910Z,30.00
2019-04-16T13:31:02.400Z,30.50
2019-04-16T13:33:30.828Z,29.60
2019-04-16T13:35:59.250Z,28.60
2019-04-16T13:38:37.575Z,29.20
2019-04-16T13:41:05.281Z,28.90
2019-04-16T13:43:39.180Z,28.50
2019-04-16T13:46:07.586Z,28.50
2019-04-16T13:48:42.401Z,28.80
2019-04-16T13:51:18.647Z,30.00
2019-04-16T13:53:46.638Z,29.20
2019-04-16T13:56:19.409Z,29.10
2019-04-16T13:58:56.120Z,28.40
2019-04-16T14:01:27.248Z,28.10
2019-04-16T14:03:56.362Z,27.90
2019-04-16T14:06:25.549Z,28.20
2019-04-16T14:08:54.661Z,29.20
2019-04-16T14:11:23.089Z,27.20
2019-04-16T14:13:51.524Z,27.10
2019-04-16T14:16:19.947Z,27.20
2019-04-16T14:18:48.389Z,26.10
2019-04-16T14:21:16.782Z,26.70
2019-04-16T14:23:45.225Z,28.70
2019-04-16T14:26:13.714Z,28.40
2019-04-16T14:28:51.905Z,27.50
2019-04-16T14:31:16.323Z,26.70
2019-04-16T14:33:52.911Z,26.70
2019-04-16T14:36:21.778Z,27.70
2019-04-16T14:38:54.851Z,28.10
2019-04-16T14:41:23.263Z,28.50
2019-04-16T14:43:58.818Z,28.90
2019-04-16T14:46:28.411Z,28.70
2019-04-16T14:48:56.367Z,27.30
2019-04-16T14:51:24.814Z,26.80
2019-04-16T14:53:54.910Z,27.30
2019-04-16T14:56:25.010Z,28.20
2019-04-16T14:58:55.069Z,29.70
2019-04-16T15:01:34.377Z,30.40
2019-04-16T15:04:19.658Z,30.90
2019-04-16T15:07:06.405Z,31.80
2019-04-16T15:09:36.474Z,32.80
2019-04-16T15:12:23.333Z,33.20
2019-04-16T15:14:59.439Z,33.70
2019-04-16T15:17:44.468Z,34.70
2019-04-16T15:20:23.796Z,34.10
2019-04-16T15:23:10.513Z,34.20
2019-04-16T15:25:56.985Z,34.80
2019-04-16T15:28:27.055Z,34.80
2019-04-16T15:31:00.711Z,35.50
2019-04-16T15:33:28.890Z,35.60
2019-04-16T15:36:01.688Z,35.60
2019-04-16T15:38:37.748Z,35.80
2019-04-16T15:41:17.525Z,35.00
2019-04-16T15:44:04.171Z,35.10
2019-04-16T15:46:41.224Z,35.70
2019-04-16T15:49:26.769Z,35.90
2019-04-16T15:52:13.376Z,35.40
2019-04-16T15:54:52.488Z,32.80
2019-04-16T15:57:38.773Z,31.70
2019-04-16T16:00:15.793Z,30.80
2019-04-16T16:03:02.353Z,29.90
2019-04-16T16:05:50.480Z,29.10
2019-04-16T16:08:27.013Z,28.80
2019-04-16T16:10:58.298Z,28.50
2019-04-16T16:13:27.249Z,29.50
2019-04-16T16:15:55.709Z,27.90
2019-04-16T16:18:24.371Z,27.90
2019-04-16T16:20:52.782Z,28.10
2019-04-16T16:23:21.196Z,29.90
2019-04-16T16:25:49.658Z,28.10
2019-04-16T16:28:18.129Z,29.00
2019-04-16T16:30:46.564Z,29.80
2019-04-16T16:33:14.973Z,30.10
2019-04-16T16:35:57.096Z,32.30
2019-04-16T16:38:14.077Z,30.80
2019-04-16T16:40:43.467Z,30.70
2019-04-16T16:43:14.170Z,30.10
2019-04-16T16:45:46.477Z,30.80
2019-04-16T16:48:15.070Z,31.10
2019-04-16T16:50:44.091Z,31.60
2019-04-16T16:53:30.721Z,31.80
2019-04-16T16:56:02.802Z,31.60
2019-04-16T16:58:32.634Z,31.80
2019-04-16T17:01:13.880Z,32.50
2019-04-16T17:03:43.281Z,31.90
2019-04-16T17:06:13.352Z,32.40
2019-04-16T17:08:41.765Z,32.70
2019-04-16T17:11:16.446Z,31.90
2019-04-16T17:13:40.429Z,32.10
2019-04-16T17:16:13.509Z,32.50
2019-04-16T17:18:39.021Z,33.40
2019-04-16T17:21:07.441Z,33.30
2019-04-16T17:23:37.952Z,34.90
2019-04-16T17:26:06.464Z,34.70
2019-04-16T17:28:34.885Z,35.00
2019-04-16T17:31:05.920Z,35.40
2019-04-16T17:33:34.417Z,36.20
2019-04-16T17:36:02.871Z,36.80
2019-04-16T17:38:33.866Z,37.30
2019-04-16T17:41:05.882Z,38.00
2019-04-16T17:44:00.352Z,38.20
2019-04-16T17:46:36.260Z,38.60
2019-04-16T17:49:12.158Z,39.10
2019-04-16T17:51:50.845Z,39.30
2019-04-16T17:54:23.619Z,38.70
2019-04-16T17:57:10.169Z,39.00
2019-04-16T17:59:56.750Z,39.50
2019-04-16T18:02:42.115Z,39.60
2019-04-16T18:05:23.419Z,40.50
2019-04-16T18:08:10.842Z,41.30
2019-04-16T18:10:43.617Z,41.60
2019-04-16T18:13:13.697Z,41.70
2019-04-16T18:15:53.004Z,41.90
2019-04-16T18:18:26.441Z,42.10
2019-04-16T18:20:58.927Z,42.60
2019-04-16T18:23:31.088Z,42.70
2019-04-16T18:26:17.144Z,42.80
2019-04-16T18:28:47.229Z,42.50
2019-04-16T18:31:36.478Z,42.50
2019-04-16T18:34:12.652Z,42.50
2019-04-16T18:36:42.700Z,43.40
2019-04-16T18:39:27.967Z,43.50
2019-04-16T18:41:58.097Z,44.00
2019-04-16T18:44:44.398Z,44.80
2019-04-16T18:47:24.006Z,45.00
2019-04-16T18:49:54.156Z,45.50
2019-04-16T18:52:23.198Z,45.10
2019-04-16T18:54:53.268Z,45.40
2019-04-16T18:57:22.853Z,46.00
2019-04-16T18:59:52.904Z,46.20
2019-04-16T19:02:25.468Z,46.60
2019-04-16T19:04:55.387Z,47.00
2019-04-16T19:07:25.357Z,47.50
2019-04-16T19:09:55.217Z,47.30
2019-04-16T19:12:25.272Z,47.90
2019-04-16T19:14:55.074Z,48.20
2019-04-16T19:17:25.035Z,48.50
2019-04-16T19:19:55.271Z,48.90
2019-04-16T19:22:25.157Z,49.50
2019-04-16T19:24:58.247Z,49.90
2019-04-16T19:27:28.047Z,50.50
2019-04-16T19:30:00.716Z,51.00
2019-04-16T19:32:30.747Z,51.50
2019-04-16T19:35:08.779Z,51.80
2019-04-16T19:37:34.067Z,51.60
2019-04-16T19:40:07.240Z,52.10
2019-04-16T19:42:38.564Z,51.90
2019-04-16T19:45:08.962Z,52.30
2019-04-16T19:47:40.022Z,52.00
2019-04-16T19:50:09.929Z,52.00
2019-04-16T19:52:39.928Z,52.40
2019-04-16T19:55:12.580Z,52.70
2019-04-16T19:57:42.216Z,52.90
2019-04-16T20:00:12.656Z,52.00
2019-04-16T20:02:42.862Z,52.00
2019-04-16T20:05:15.414Z,51.80
2019-04-16T20:07:44.907Z,52.10
2019-04-16T20:10:15.954Z,52.30
2019-04-16T20:12:45.809Z,51.90
2019-04-16T20:15:15.738Z,51.60
2019-04-16T20:17:46.005Z,51.50
2019-04-16T20:20:16.152Z,51.60
2019-04-16T20:22:46.107Z,51.20
2019-04-16T20:25:16.174Z,51.00
2019-04-16T20:27:46.315Z,51.00
2019-04-16T20:30:16.451Z,51.20
2019-04-16T20:32:46.663Z,51.20
2019-04-16T20:35:18.769Z,51.70
2019-04-16T20:37:50.408Z,51.80
2019-04-16T20:40:21.095Z,52.10
2019-04-16T20:42:53.931Z,52.70
2019-04-16T20:45:26.005Z,52.40
2019-04-16T20:47:56.066Z,52.50
2019-04-16T20:50:25.995Z,53.30
2019-04-16T20:52:57.092Z,53.90
2019-04-16T20:55:28.116Z,54.00
2019-04-16T20:58:00.443Z,53.50
2019-04-16T21:00:30.930Z,54.10
2019-04-16T21:03:02.265Z,54.40
2019-04-16T21:05:35.454Z,54.60
2019-04-16T21:08:01.193Z,55.10
2019-04-16T21:10:29.921Z,55.70
2019-04-16T21:12:59.926Z,55.10
2019-04-16T21:15:28.437Z,55.10
2019-04-16T21:17:59.608Z,54.80
2019-04-16T21:20:28.112Z,54.80
2019-04-16T21:22:57.425Z,54.70
2019-04-16T21:25:29.554Z,54.60
2019-04-16T21:28:08.566Z,54.80
2019-04-16T21:30:37.163Z,55.20
2019-04-16T21:33:13.512Z,55.50
2019-04-16T21:35:46.338Z,55.90
2019-04-16T21:38:19.104Z,56.40
2019-04-16T21:40:47.636Z,56.90
2019-04-16T21:43:16.150Z,57.40
2019-04-16T21:45:45.574Z,57.50
2019-04-16T21:48:14.171Z,58.10
2019-04-16T21:50:44.522Z,58.20
2019-04-16T21:53:12.821Z,58.50
2019-04-16T21:55:41.306Z,58.90
2019-04-16T21:58:09.789Z,60.40
2019-04-16T22:00:39.889Z,60.20
2019-04-16T22:03:10.984Z,60.70
2019-04-16T22:05:39.649Z,61.30
2019-04-16T22:08:08.065Z,61.70
2019-04-16T22:10:36.990Z,61.70
2019-04-16T22:13:05.641Z,61.50
2019-04-16T22:15:34.055Z,61.40
2019-04-16T22:18:07.581Z,62.20
2019-04-16T22:20:35.731Z,62.00
2019-04-16T22:23:02.773Z,62.00
2019-04-16T22:25:31.177Z,62.70
2019-04-16T22:27:59.592Z,62.80
2019-04-16T22:30:28.399Z,63.00
2019-04-16T22:33:16.173Z,62.60
2019-04-16T22:35:44.604Z,62.50
2019-04-16T22:38:14.401Z,62.20
2019-04-16T22:40:44.673Z,61.60
2019-04-16T22:43:14.742Z,62.00
2019-04-16T22:45:53.711Z,63.30
2019-04-16T22:48:22.120Z,61.90
2019-04-16T22:50:50.816Z,62.50
2019-04-16T22:53:19.233Z,61.80
2019-04-16T22:55:47.640Z,63.00
2019-04-16T22:58:26.778Z,62.50
2019-04-16T23:00:57.582Z,62.90
2019-04-16T23:03:26.275Z,63.90
2019-04-16T23:05:54.685Z,64.90
2019-04-16T23:08:23.112Z,64.00
2019-04-16T23:10:52.112Z,63.10
2019-04-16T23:13:20.626Z,63.00
2019-04-16T23:15:49.078Z,63.10
2019-04-16T23:18:18.340Z,63.00
2019-04-16T23:20:46.920Z,63.30
2019-04-16T23:23:18.127Z,62.50
2019-04-16T23:25:45.486Z,63.00
2019-04-16T23:28:13.921Z,63.90
2019-04-16T23:30:42.333Z,65.70
2019-04-16T23:33:10.783Z,65.80
2019-04-16T23:35:43.165Z,65.80
2019-04-16T23:38:09.345Z,65.00
2019-04-16T23:40:40.731Z,67.20
2019-04-16T23:43:27.781Z,67.20
2019-04-16T23:46:04.998Z,66.60
2019-04-16T23:48:50.565Z,66.10
2019-04-16T23:51:29.025Z,66.00
2019-04-16T23:53:58.269Z,66.90
2019-04-16T23:56:28.733Z,67.30
2019-04-16T23:59:15.255Z,67.00
